Time;durP1;ratioP1;P1;durP2;ratioP2;P2;SDS_P1;SDS_P2;PMS_P1;PMS_P2;Temp;Humidity;BMP_temperature;BMP_pressure;BME280_temperature;BME280_humidity;BME280_pressure;Samples;Min_cycle;Max_cycle;Signal;HPM_P1;HPM_P2
2021/08/15 00:00:39;;;;;;;6.07;3.58;;;17.70;79.60;;;;;;2046235;28;20458;-92
2021/08/15 00:01:40;;;;;;;5.35;3.33;;;17.70;79.70;;;;;;2050514;28;20403;-92
2021/08/15 00:02:41;;;;;;;5.70;3.53;;;17.80;79.70;;;;;;2040093;29;20095;-92
2021/08/15 00:03:42;;;;;;;5.63;3.40;;;17.70;79.70;;;;;;2046832;29;20051;-92
2021/08/15 00:04:43;;;;;;;8.13;3.85;;;17.80;79.70;;;;;;2048927;29;20028;-92
2021/08/15 00:05:44;;;;;;;6.85;3.80;;;17.80;79.70;;;;;;2035069;29;20541;-92
2021/08/15 00:06:44;;;;;;;5.07;3.05;;;17.70;79.70;;;;;;2034385;29;20036;-92
2021/08/15 00:07:45;;;;;;;5.80;3.50;;;17.80;79.70;;;;;;2034626;29;20060;-92
2021/08/15 00:08:46;;;;;;;6.70;3.30;;;17.80;79.70;;;;;;2042433;29;20446;-92
2021/08/15 00:09:47;;;;;;;5.75;3.50;;;17.80;79.70;;;;;;2037929;29;20084;-92
2021/08/15 00:10:48;;;;;;;7.75;3.78;;;17.80;79.60;;;;;;2026923;29;20036;-92
2021/08/15 00:11:48;;;;;;;6.00;3.53;;;17.80;79.60;;;;;;2030471;29;20049;-91
2021/08/15 00:12:49;;;;;;;6.57;3.53;;;17.80;79.60;;;;;;2019157;29;20037;-91
2021/08/15 00:13:50;;;;;;;6.15;3.40;;;17.80;79.60;;;;;;2034511;29;20072;-91
2021/08/15 00:14:51;;;;;;;5.88;3.50;;;17.80;79.60;;;;;;2039438;29;20087;-91
2021/08/15 00:15:51;;;;;;;7.07;3.90;;;17.80;79.60;;;;;;2035577;29;20059;-92
2021/08/15 00:16:52;;;;;;;6.63;3.78;;;17.80;79.70;;;;;;2026560;29;20041;-92
2021/08/15 00:17:53;;;;;;;5.60;3.90;;;17.80;79.70;;;;;;2042229;29;20110;-91
2021/08/15 00:18:53;;;;;;;6.43;3.88;;;17.80;79.70;;;;;;2047843;29;20134;-92
2021/08/15 00:19:54;;;;;;;5.07;3.20;;;17.80;79.70;;;;;;2043054;29;20091;-92
2021/08/15 00:20:55;;;;;;;6.18;3.67;;;17.80;79.80;;;;;;2034549;29;20032;-92
2021/08/15 00:21:55;;;;;;;5.97;3.45;;;17.80;79.80;;;;;;2051292;29;20046;-92
2021/08/15 00:22:56;;;;;;;6.10;3.50;;;17.70;79.80;;;;;;2036198;29;20403;-92
2021/08/15 00:23:57;;;;;;;6.55;3.60;;;17.70;79.80;;;;;;2028116;29;20060;-92
2021/08/15 00:24:58;;;;;;;7.47;3.80;;;17.70;79.80;;;;;;2033899;29;20132;-91
2021/08/15 00:25:59;;;;;;;7.20;3.67;;;17.70;79.90;;;;;;2030228;29;20032;-92
2021/08/15 00:26:59;;;;;;;5.82;3.60;;;17.70;79.90;;;;;;2048553;29;20130;-92
2021/08/15 00:28:00;;;;;;;7.38;3.90;;;17.70;79.90;;;;;;2036405;29;20048;-91
2021/08/15 00:29:02;;;;;;;8.95;3.60;;;17.70;80.00;;;;;;2025848;29;20093;-91
2021/08/15 00:30:03;;;;;;;6.40;3.55;;;17.70;80.00;;;;;;2044554;29;20059;-92
2021/08/15 00:31:04;;;;;;;5.72;3.55;;;17.70;80.00;;;;;;2044364;29;20040;-91
2021/08/15 00:32:08;;;;;;;5.68;3.60;;;17.70;80.00;;;;;;2046046;29;20051;-92
2021/08/15 00:33:09;;;;;;;5.80;3.33;;;17.70;80.10;;;;;;2043037;29;20059;-92
2021/08/15 00:34:10;;;;;;;6.57;3.35;;;17.70;80.10;;;;;;2039679;29;20394;-92
2021/08/15 00:35:11;;;;;;;5.75;3.53;;;17.70;80.10;;;;;;2020550;29;20155;-91
2021/08/15 00:36:11;;;;;;;6.07;3.60;;;17.70;80.10;;;;;;2042238;29;20036;-93
2021/08/15 00:37:12;;;;;;;6.78;3.85;;;17.70;80.10;;;;;;2034532;29;20529;-92
2021/08/15 00:38:12;;;;;;;6.10;3.65;;;17.70;80.10;;;;;;2026910;29;20432;-92
2021/08/15 00:39:13;;;;;;;5.93;3.58;;;17.70;80.20;;;;;;2029816;29;20115;-93
2021/08/15 00:40:15;;;;;;;6.05;3.28;;;17.70;80.10;;;;;;2056111;28;20487;-92
2021/08/15 00:41:15;;;;;;;6.43;3.67;;;17.70;80.20;;;;;;2050221;29;20133;-92
2021/08/15 00:42:16;;;;;;;6.50;3.70;;;17.70;80.80;;;;;;2050003;29;20035;-92
2021/08/15 00:43:17;;;;;;;5.25;3.50;;;17.60;80.10;;;;;;2034062;29;20076;-92
2021/08/15 00:44:18;;;;;;;5.53;3.38;;;17.70;80.20;;;;;;2018703;29;20455;-92
2021/08/15 00:45:18;;;;;;;6.30;3.75;;;17.70;80.20;;;;;;2042303;29;20040;-93
2021/08/15 00:46:20;;;;;;;5.32;3.33;;;17.70;80.20;;;;;;2050037;28;20501;-92
2021/08/15 00:47:20;;;;;;;6.30;3.70;;;17.70;80.10;;;;;;2050395;28;20031;-92
2021/08/15 00:48:21;;;;;;;5.55;3.50;;;17.70;80.10;;;;;;2057305;29;20030;-92
2021/08/15 00:49:22;;;;;;;5.18;3.20;;;17.70;80.10;;;;;;2053354;29;20027;-92
2021/08/15 00:50:22;;;;;;;6.93;3.40;;;17.70;80.10;;;;;;2051045;29;20063;-92
2021/08/15 00:51:23;;;;;;;8.18;3.50;;;17.60;80.10;;;;;;2035404;29;20041;-93
2021/08/15 00:52:24;;;;;;;5.82;3.20;;;17.60;80.20;;;;;;2050759;29;20027;-92
2021/08/15 00:53:24;;;;;;;5.63;3.38;;;17.60;80.20;;;;;;2051477;29;20071;-93
2021/08/15 00:54:25;;;;;;;7.72;3.67;;;17.60;80.20;;;;;;2054249;29;20055;-93
2021/08/15 00:55:26;;;;;;;5.70;3.40;;;17.60;80.20;;;;;;2059142;29;20036;-92
2021/08/15 00:56:27;;;;;;;5.93;3.47;;;17.70;80.30;;;;;;2059136;29;20125;-93
2021/08/15 00:57:31;;;;;;;5.80;3.28;;;17.60;80.30;;;;;;2051039;29;20491;-93
2021/08/15 00:58:38;;;;;;;7.10;3.55;;;17.70;80.30;;;;;;2044040;29;20043;-91
2021/08/15 00:59:39;;;;;;;5.80;3.08;;;17.70;80.20;;;;;;2059244;29;20064;-93
2021/08/15 01:00:40;;;;;;;5.32;3.13;;;17.70;80.20;;;;;;2051009;29;20028;-93
2021/08/15 01:01:40;;;;;;;5.55;3.38;;;17.70;80.20;;;;;;2035049;29;20036;-93
2021/08/15 01:02:48;;;;;;;5.50;3.50;;;17.70;80.20;;;;;;2044164;29;20032;-92
2021/08/15 01:03:49;;;;;;;6.30;3.20;;;17.70;80.20;;;;;;2036044;29;20135;-92
2021/08/15 01:04:50;;;;;;;5.47;3.00;;;17.80;80.30;;;;;;2034630;29;20036;-93
2021/08/15 01:05:51;;;;;;;6.00;3.17;;;17.80;80.20;;;;;;2050675;28;20040;-93
2021/08/15 01:06:52;;;;;;;5.13;2.95;;;17.70;80.20;;;;;;2034444;29;20212;-94
2021/08/15 01:07:53;;;;;;;5.85;3.28;;;17.80;80.20;;;;;;2027185;29;20059;-93
2021/08/15 01:08:53;;;;;;;5.78;3.03;;;17.80;80.20;;;;;;2034634;29;20526;-93
2021/08/15 01:09:55;;;;;;;5.93;3.10;;;17.80;80.20;;;;;;2034604;29;20063;-93
2021/08/15 01:10:56;;;;;;;5.78;3.33;;;17.80;80.20;;;;;;2034597;29;20071;-93
2021/08/15 01:11:58;;;;;;;5.15;3.00;;;17.80;80.20;;;;;;2043050;29;20040;-93
2021/08/15 01:12:58;;;;;;;5.10;2.80;;;17.80;80.20;;;;;;2052281;28;20039;-92
2021/08/15 01:14:06;;;;;;;5.78;3.20;;;17.90;80.20;;;;;;2054540;29;20043;-92
2021/08/15 01:15:09;;;;;;;5.25;3.13;;;17.90;80.10;;;;;;2039986;29;20040;-92
2021/08/15 01:16:10;;;;;;;5.78;3.22;;;17.90;80.10;;;;;;2042639;29;20056;-92
2021/08/15 01:17:12;;;;;;;6.15;2.97;;;17.90;80.10;;;;;;2041719;29;20032;-92
2021/08/15 01:18:21;;;;;;;4.68;2.70;;;17.90;80.10;;;;;;2044848;29;20035;-91
2021/08/15 01:19:28;;;;;;;5.82;3.17;;;17.90;80.10;;;;;;2060738;28;20049;-93
2021/08/15 01:20:29;;;;;;;6.60;3.28;;;17.90;80.10;;;;;;2052022;29;20038;-91
2021/08/15 01:21:30;;;;;;;6.70;3.15;;;17.90;80.10;;;;;;2048141;29;20044;-91
2021/08/15 01:22:35;;;;;;;5.55;2.95;;;17.90;80.10;;;;;;2044179;29;20055;-92
2021/08/15 01:23:41;;;;;;;5.22;2.88;;;17.90;80.20;;;;;;2052137;28;20049;-93
2021/08/15 01:24:42;;;;;;;5.22;2.90;;;17.90;80.20;;;;;;2059007;28;20034;-92
2021/08/15 01:25:42;;;;;;;5.28;2.88;;;17.90;80.20;;;;;;2047464;29;20040;-92
2021/08/15 01:26:44;;;;;;;5.00;3.22;;;17.90;80.20;;;;;;2046034;29;20063;-93
2021/08/15 01:27:45;;;;;;;5.78;3.15;;;17.90;80.20;;;;;;2046927;29;20058;-92
2021/08/15 01:28:47;;;;;;;5.22;3.00;;;17.90;80.30;;;;;;2039428;29;20043;-92
2021/08/15 01:29:49;;;;;;;5.43;3.08;;;17.90;80.30;;;;;;2047732;29;20442;-93
2021/08/15 01:30:50;;;;;;;5.57;3.25;;;17.90;80.40;;;;;;2034530;29;20426;-92
2021/08/15 01:31:51;;;;;;;6.18;2.75;;;17.80;80.30;;;;;;2034188;29;20087;-93
2021/08/15 01:32:52;;;;;;;5.85;3.35;;;17.80;80.40;;;;;;2029045;29;20036;-93
2021/08/15 01:33:52;;;;;;;5.07;2.95;;;17.80;80.40;;;;;;2034101;29;20040;-92
2021/08/15 01:34:55;;;;;;;5.07;3.42;;;17.80;80.40;;;;;;2037398;29;20035;-93
2021/08/15 01:35:57;;;;;;;5.10;2.92;;;17.80;80.50;;;;;;2037685;29;20040;-92
2021/08/15 01:36:57;;;;;;;5.57;3.10;;;17.70;80.40;;;;;;2045146;29;20044;-92
2021/08/15 01:37:58;;;;;;;6.07;3.30;;;17.70;80.40;;;;;;2036102;29;20087;-92
2021/08/15 01:38:59;;;;;;;6.47;3.13;;;17.80;80.50;;;;;;2033741;29;20469;-93
2021/08/15 01:40:02;;;;;;;4.72;3.08;;;17.70;80.40;;;;;;2042292;29;20151;-93
2021/08/15 01:41:03;;;;;;;6.18;3.35;;;17.70;80.50;;;;;;2034245;29;20036;-92
2021/08/15 01:42:04;;;;;;;5.85;3.35;;;17.70;80.50;;;;;;2042201;28;20040;-92
2021/08/15 01:43:05;;;;;;;6.72;3.08;;;17.70;80.50;;;;;;2040044;29;20046;-92
2021/08/15 01:44:05;;;;;;;5.90;3.10;;;17.70;80.50;;;;;;2031459;29;20419;-92
2021/08/15 01:45:09;;;;;;;5.90;3.38;;;17.70;80.50;;;;;;2041670;29;20425;-92
2021/08/15 01:46:09;;;;;;;5.30;3.03;;;17.70;80.50;;;;;;2042116;28;20055;-92
2021/08/15 01:47:10;;;;;;;5.22;3.28;;;17.70;80.50;;;;;;2033564;29;20402;-93
2021/08/15 01:48:11;;;;;;;5.63;3.00;;;17.70;80.60;;;;;;2057826;28;20456;-92
2021/08/15 01:49:12;;;;;;;6.00;3.50;;;17.70;80.50;;;;;;2065517;28;20026;-92
2021/08/15 01:50:12;;;;;;;6.25;3.47;;;17.70;80.50;;;;;;2049595;28;20039;-92
2021/08/15 01:51:17;;;;;;;6.63;3.33;;;17.60;80.60;;;;;;2034243;29;20036;-93
2021/08/15 01:52:18;;;;;;;6.82;3.65;;;17.60;80.60;;;;;;2034268;29;20040;-92
2021/08/15 01:53:21;;;;;;;7.53;3.63;;;17.60;80.70;;;;;;2034022;29;20202;-91
2021/08/15 01:54:22;;;;;;;5.72;3.13;;;17.60;80.70;;;;;;2040051;29;20046;-92
2021/08/15 01:55:23;;;;;;;4.45;2.90;;;17.60;80.80;;;;;;2033877;29;20047;-91
2021/08/15 01:56:24;;;;;;;5.25;3.28;;;17.60;80.80;;;;;;2033447;29;20059;-92
2021/08/15 01:57:24;;;;;;;5.45;2.83;;;17.60;80.80;;;;;;2026047;29;20037;-92
2021/08/15 01:58:25;;;;;;;6.22;3.20;;;17.50;80.90;;;;;;2026194;29;20045;-93
2021/08/15 01:59:27;;;;;;;5.80;3.08;;;17.60;80.90;;;;;;2017972;29;20037;-93
2021/08/15 02:00:27;;;;;;;6.38;3.30;;;17.50;80.80;;;;;;2010954;29;20046;-93
2021/08/15 02:01:28;;;;;;;5.28;2.97;;;17.60;81.00;;;;;;2018389;29;20037;-92
2021/08/15 02:02:29;;;;;;;4.90;2.95;;;17.60;80.90;;;;;;2025999;29;20060;-92
2021/08/15 02:03:30;;;;;;;6.35;3.53;;;17.50;80.90;;;;;;2025618;29;20144;-93
2021/08/15 02:04:30;;;;;;;6.88;3.60;;;17.50;81.00;;;;;;2033732;29;20068;-92
2021/08/15 02:05:31;;;;;;;6.85;3.83;;;17.50;80.90;;;;;;2024465;29;20408;-92
2021/08/15 02:06:32;;;;;;;5.78;3.53;;;17.50;80.90;;;;;;2037990;29;20046;-92
2021/08/15 02:07:32;;;;;;;5.72;3.17;;;17.50;80.90;;;;;;2040643;29;20071;-92
2021/08/15 02:08:34;;;;;;;6.38;3.40;;;17.50;81.00;;;;;;2057544;28;20559;-92
2021/08/15 02:09:34;;;;;;;5.57;3.33;;;17.60;81.00;;;;;;2041642;29;20118;-92
2021/08/15 02:10:36;;;;;;;6.03;3.38;;;17.50;80.90;;;;;;2025547;29;20052;-92
2021/08/15 02:11:37;;;;;;;4.95;3.38;;;17.50;80.90;;;;;;2025713;29;20041;-93
2021/08/15 02:12:38;;;;;;;5.53;3.33;;;17.50;80.90;;;;;;2041442;29;20047;-92
2021/08/15 02:13:38;;;;;;;6.00;3.17;;;17.50;81.00;;;;;;2041775;29;20068;-93
2021/08/15 02:14:39;;;;;;;6.20;3.22;;;17.50;81.10;;;;;;2041716;29;20556;-93
2021/08/15 02:15:40;;;;;;;6.25;3.55;;;17.50;81.10;;;;;;2026092;29;20064;-92
2021/08/15 02:16:40;;;;;;;5.60;3.47;;;17.50;81.10;;;;;;2040536;29;20044;-92
2021/08/15 02:17:41;;;;;;;5.85;3.20;;;17.50;81.20;;;;;;2041382;29;20032;-93
2021/08/15 02:18:42;;;;;;;6.18;3.60;;;17.50;81.20;;;;;;2049594;28;20046;-93
2021/08/15 02:19:42;;;;;;;5.22;3.08;;;17.50;81.20;;;;;;2041736;29;20046;-93
2021/08/15 02:20:43;;;;;;;6.13;3.40;;;17.50;81.20;;;;;;2041541;29;20036;-92
2021/08/15 02:21:44;;;;;;;6.13;3.20;;;17.50;81.20;;;;;;2041482;29;20044;-93
2021/08/15 02:22:45;;;;;;;6.10;3.67;;;17.50;81.20;;;;;;2041439;29;20429;-93
2021/08/15 02:23:46;;;;;;;6.45;3.42;;;17.50;81.20;;;;;;2041679;29;20036;-92
2021/08/15 02:24:46;;;;;;;5.72;3.20;;;17.50;81.30;;;;;;2033518;29;20182;-92
2021/08/15 02:25:47;;;;;;;6.20;3.30;;;17.50;81.30;;;;;;2025609;29;20096;-93
2021/08/15 02:26:48;;;;;;;5.38;3.53;;;17.50;81.30;;;;;;2023777;29;20032;-93
2021/08/15 02:27:49;;;;;;;6.22;3.17;;;17.50;81.40;;;;;;2025621;29;20049;-92
2021/08/15 02:28:50;;;;;;;5.05;3.10;;;17.50;81.40;;;;;;2049431;28;20031;-92
2021/08/15 02:29:50;;;;;;;5.63;3.20;;;17.50;81.40;;;;;;2049463;29;20067;-93
2021/08/15 02:30:51;;;;;;;5.57;3.17;;;17.50;81.40;;;;;;2033602;29;20406;-92
2021/08/15 02:31:52;;;;;;;5.85;3.33;;;17.50;81.40;;;;;;2034866;29;20067;-92
2021/08/15 02:32:53;;;;;;;6.80;3.53;;;17.50;81.40;;;;;;2027880;29;20037;-93
2021/08/15 02:33:54;;;;;;;6.00;3.22;;;17.50;81.50;;;;;;2035186;29;20036;-92
2021/08/15 02:34:54;;;;;;;5.78;3.17;;;17.50;81.50;;;;;;2041671;29;20609;-93
2021/08/15 02:35:56;;;;;;;5.75;3.05;;;17.50;81.50;;;;;;2041705;29;20043;-92
2021/08/15 02:36:57;;;;;;;5.20;2.97;;;17.50;81.50;;;;;;2024237;29;20040;-93
2021/08/15 02:37:59;;;;;;;5.18;2.65;;;17.50;81.50;;;;;;2033953;29;20044;-92
2021/08/15 02:39:00;;;;;;;5.40;3.13;;;17.50;81.50;;;;;;2033844;29;20139;-92
2021/08/15 02:40:01;;;;;;;6.30;3.05;;;17.50;81.50;;;;;;2033637;29;20092;-93
2021/08/15 02:41:03;;;;;;;5.93;3.45;;;17.50;81.50;;;;;;2048181;28;20031;-92
2021/08/15 02:42:04;;;;;;;5.53;3.40;;;17.50;81.50;;;;;;2032467;29;20074;-92
2021/08/15 02:43:05;;;;;;;5.80;2.85;;;17.50;81.60;;;;;;2033750;29;20506;-92
2021/08/15 02:44:05;;;;;;;6.68;2.88;;;17.40;81.50;;;;;;2041101;29;20094;-92
2021/08/15 02:45:08;;;;;;;5.88;2.97;;;17.50;81.60;;;;;;2033462;29;20036;-93
2021/08/15 02:46:09;;;;;;;5.82;3.20;;;17.40;81.60;;;;;;2034158;28;21754;-92
2021/08/15 02:47:10;;;;;;;7.10;3.42;;;17.40;81.60;;;;;;2057032;28;20043;-92
2021/08/15 02:48:11;;;;;;;3.97;2.67;;;17.40;81.60;;;;;;2049364;28;20086;-92
2021/08/15 02:49:12;;;;;;;4.90;3.17;;;17.40;81.60;;;;;;2060272;28;20022;-92
2021/08/15 02:50:14;;;;;;;5.07;2.78;;;17.40;81.70;;;;;;2056613;28;20051;-93
2021/08/15 02:51:14;;;;;;;6.03;3.10;;;17.40;81.80;;;;;;2034118;28;20036;-93
2021/08/15 02:52:15;;;;;;;5.00;2.90;;;17.40;81.90;;;;;;2049252;29;20035;-92
2021/08/15 02:53:16;;;;;;;6.20;3.28;;;17.40;81.90;;;;;;2048906;28;20175;-93
2021/08/15 02:54:17;;;;;;;6.20;3.65;;;17.30;81.90;;;;;;2046190;29;20123;-93
2021/08/15 02:55:17;;;;;;;5.45;3.05;;;17.30;82.00;;;;;;2033516;29;20032;-92
2021/08/15 02:56:18;;;;;;;5.20;3.25;;;17.30;82.00;;;;;;2033819;29;20063;-92
2021/08/15 02:57:19;;;;;;;5.90;3.20;;;17.30;82.10;;;;;;2041431;29;20039;-93
2021/08/15 02:58:19;;;;;;;6.00;3.38;;;17.30;82.10;;;;;;2052794;28;20164;-93
2021/08/15 02:59:20;;;;;;;6.18;3.53;;;17.30;82.10;;;;;;2046145;29;20498;-92
2021/08/15 03:00:21;;;;;;;7.18;3.42;;;17.30;82.10;;;;;;2041727;29;20490;-92
2021/08/15 03:01:21;;;;;;;5.78;3.20;;;17.20;82.10;;;;;;2048600;29;20082;-92
2021/08/15 03:02:22;;;;;;;5.63;3.42;;;17.20;82.10;;;;;;2049243;29;20039;-92
2021/08/15 03:03:23;;;;;;;5.65;3.33;;;17.20;82.20;;;;;;2039306;29;20046;-92
2021/08/15 03:04:24;;;;;;;6.47;3.40;;;17.20;82.30;;;;;;2026266;29;20028;-92
2021/08/15 03:05:24;;;;;;;7.75;3.60;;;17.20;82.30;;;;;;2041249;29;20151;-92
2021/08/15 03:06:25;;;;;;;5.53;3.25;;;17.20;82.30;;;;;;2036579;29;20036;-92
2021/08/15 03:07:26;;;;;;;5.90;3.10;;;17.20;82.30;;;;;;2036965;29;20130;-92
2021/08/15 03:08:27;;;;;;;6.38;3.22;;;17.20;82.40;;;;;;2057320;28;20130;-93
2021/08/15 03:09:27;;;;;;;5.82;3.47;;;17.20;82.30;;;;;;2058758;28;20038;-92
2021/08/15 03:10:28;;;;;;;6.18;2.97;;;17.20;82.30;;;;;;2041389;29;20047;-93
2021/08/15 03:11:29;;;;;;;5.60;3.08;;;17.20;82.40;;;;;;2040987;29;20099;-93
2021/08/15 03:12:29;;;;;;;5.70;3.25;;;17.20;82.30;;;;;;2041322;29;20051;-93
2021/08/15 03:13:30;;;;;;;4.97;2.90;;;17.20;82.30;;;;;;2043786;29;20036;-92
2021/08/15 03:14:31;;;;;;;5.18;3.03;;;17.20;82.30;;;;;;2048697;28;20047;-93
2021/08/15 03:15:32;;;;;;;5.18;3.15;;;17.20;82.30;;;;;;2041627;29;20039;-92
2021/08/15 03:16:33;;;;;;;5.35;3.10;;;17.20;82.30;;;;;;2040536;29;20027;-93
2021/08/15 03:17:34;;;;;;;5.72;3.15;;;17.20;82.30;;;;;;2056570;28;20078;-92
2021/08/15 03:18:34;;;;;;;4.75;2.97;;;17.20;82.40;;;;;;2041032;29;20047;-92
2021/08/15 03:19:36;;;;;;;5.90;3.17;;;17.30;82.40;;;;;;2041239;29;20375;-92
2021/08/15 03:20:37;;;;;;;5.97;3.25;;;17.20;82.20;;;;;;2049243;29;20126;-93
2021/08/15 03:21:39;;;;;;;6.25;3.45;;;17.20;82.20;;;;;;2049027;28;20043;-92
2021/08/15 03:22:40;;;;;;;6.75;3.15;;;17.20;82.20;;;;;;2048858;29;20031;-93
2021/08/15 03:23:41;;;;;;;7.03;3.30;;;17.30;82.20;;;;;;2047580;28;20031;-93
2021/08/15 03:24:42;;;;;;;6.60;3.40;;;17.20;82.10;;;;;;2056361;28;20077;-92
2021/08/15 03:25:42;;;;;;;5.72;3.08;;;17.20;82.10;;;;;;2049035;29;20146;-92
2021/08/15 03:26:44;;;;;;;5.55;3.30;;;17.20;82.00;;;;;;2056481;28;20121;-92
2021/08/15 03:27:45;;;;;;;6.75;3.28;;;17.20;82.00;;;;;;2056360;28;20058;-93
2021/08/15 03:28:46;;;;;;;6.28;3.40;;;17.20;82.00;;;;;;2049000;29;20039;-93
2021/08/15 03:29:46;;;;;;;4.57;3.00;;;17.30;82.00;;;;;;2049261;29;20058;-92
2021/08/15 03:30:47;;;;;;;6.00;3.35;;;17.30;82.10;;;;;;2041775;29;20054;-93
2021/08/15 03:31:48;;;;;;;6.25;3.35;;;17.30;82.10;;;;;;2050603;28;20095;-93
2021/08/15 03:32:49;;;;;;;6.75;3.85;;;17.30;82.00;;;;;;2047880;28;20042;-93
2021/08/15 03:33:50;;;;;;;7.50;3.28;;;17.30;82.00;;;;;;2039670;29;20394;-93
2021/08/15 03:34:50;;;;;;;6.53;3.30;;;17.30;82.00;;;;;;2041186;29;20402;-93
2021/08/15 03:35:51;;;;;;;6.63;3.70;;;17.30;82.00;;;;;;2049049;29;20134;-92
2021/08/15 03:36:52;;;;;;;5.85;3.20;;;17.20;81.90;;;;;;2054600;28;20134;-93
2021/08/15 03:37:52;;;;;;;6.40;3.13;;;17.30;82.00;;;;;;2043506;29;20047;-92
2021/08/15 03:38:53;;;;;;;5.38;3.08;;;17.30;82.00;;;;;;2041575;29;20466;-92
2021/08/15 03:39:54;;;;;;;5.78;3.42;;;17.20;81.90;;;;;;2040466;29;20433;-92
2021/08/15 03:40:54;;;;;;;6.05;3.17;;;17.20;82.00;;;;;;2048434;28;20131;-94
2021/08/15 03:41:58;;;;;;;6.18;3.15;;;17.20;82.00;;;;;;2043148;29;20039;-93
2021/08/15 03:42:59;;;;;;;5.45;3.35;;;17.20;82.00;;;;;;2041412;28;20048;-93
2021/08/15 03:43:59;;;;;;;5.40;3.10;;;17.20;82.00;;;;;;2040948;28;20067;-92
2021/08/15 03:45:00;;;;;;;5.97;3.22;;;17.30;82.00;;;;;;2049201;29;20207;-93
2021/08/15 03:46:01;;;;;;;5.75;3.13;;;17.30;82.00;;;;;;2056858;28;20035;-92
2021/08/15 03:47:02;;;;;;;5.13;3.17;;;17.20;81.90;;;;;;2041312;28;20039;-93
2021/08/15 03:48:03;;;;;;;6.70;3.63;;;17.30;82.00;;;;;;2054579;28;20050;-92
2021/08/15 03:49:04;;;;;;;5.03;3.03;;;17.30;82.00;;;;;;2049416;28;20063;-92
2021/08/15 03:50:08;;;;;;;5.93;3.20;;;17.30;82.00;;;;;;2041239;29;20437;-93
2021/08/15 03:51:09;;;;;;;5.13;3.17;;;17.30;82.00;;;;;;2029864;29;20020;-92
2021/08/15 03:52:10;;;;;;;6.28;3.00;;;17.20;82.00;;;;;;2049300;29;20038;-93
2021/08/15 03:53:11;;;;;;;4.40;2.83;;;17.30;82.10;;;;;;2049533;28;20036;-93
2021/08/15 03:54:11;;;;;;;5.40;2.92;;;17.30;82.10;;;;;;2063708;28;20039;-93
2021/08/15 03:55:12;;;;;;;6.05;3.00;;;17.30;82.20;;;;;;2055487;29;20046;-92
2021/08/15 03:56:13;;;;;;;5.43;3.13;;;17.20;82.10;;;;;;2056597;28;20063;-92
2021/08/15 03:57:13;;;;;;;6.65;3.53;;;17.20;82.20;;;;;;2056727;29;20039;-91
2021/08/15 03:58:14;;;;;;;5.13;2.90;;;17.20;82.20;;;;;;2057150;29;20063;-92
2021/08/15 03:59:15;;;;;;;5.72;3.30;;;17.20;82.20;;;;;;2041171;29;20172;-92
2021/08/15 04:00:17;;;;;;;7.05;3.50;;;17.20;82.30;;;;;;2043844;28;20135;-92
2021/08/15 04:01:18;;;;;;;5.65;3.10;;;17.20;82.30;;;;;;2041384;29;20051;-92
2021/08/15 04:02:18;;;;;;;5.85;3.17;;;17.20;82.30;;;;;;2041763;29;20485;-92
2021/08/15 04:03:19;;;;;;;6.32;3.08;;;17.20;82.30;;;;;;2041528;29;20044;-92
2021/08/15 04:04:20;;;;;;;5.80;3.20;;;17.20;82.30;;;;;;2043829;29;20036;-92
2021/08/15 04:05:20;;;;;;;6.82;3.38;;;17.20;82.30;;;;;;2057560;28;20035;-91
2021/08/15 04:06:22;;;;;;;6.53;3.20;;;17.20;82.30;;;;;;2066788;28;20085;-93
2021/08/15 04:07:22;;;;;;;5.63;3.50;;;17.20;82.30;;;;;;2041683;29;20036;-93
2021/08/15 04:08:23;;;;;;;6.15;3.38;;;17.20;82.90;;;;;;2050906;28;20070;-92
2021/08/15 04:09:24;;;;;;;5.88;3.30;;;17.20;82.30;;;;;;2053382;28;20038;-92
2021/08/15 04:10:25;;;;;;;5.50;3.33;;;17.20;82.30;;;;;;2034971;29;20044;-92
2021/08/15 04:11:25;;;;;;;7.57;3.70;;;17.20;82.30;;;;;;2046194;28;20035;-92
2021/08/15 04:12:26;;;;;;;6.03;3.50;;;17.20;82.30;;;;;;2036972;29;20478;-92
2021/08/15 04:13:27;;;;;;;6.57;3.30;;;17.20;82.30;;;;;;2030050;29;20532;-92
2021/08/15 04:14:27;;;;;;;5.75;3.05;;;17.10;82.30;;;;;;2055874;28;20035;-91
2021/08/15 04:15:28;;;;;;;6.50;3.35;;;17.10;82.40;;;;;;2043871;29;20039;-92
2021/08/15 04:16:29;;;;;;;6.00;3.58;;;17.10;82.50;;;;;;2050363;28;20035;-93
2021/08/15 04:17:30;;;;;;;5.32;3.10;;;17.10;82.60;;;;;;2042708;29;20584;-92
2021/08/15 04:18:30;;;;;;;5.82;3.50;;;17.10;82.60;;;;;;2036088;29;20091;-92
2021/08/15 04:19:31;;;;;;;5.40;3.38;;;17.00;82.60;;;;;;2046289;28;20051;-93
2021/08/15 04:20:32;;;;;;;5.82;3.13;;;17.10;82.70;;;;;;2042690;29;20494;-92
2021/08/15 04:21:32;;;;;;;5.85;3.40;;;17.00;82.70;;;;;;2050175;29;20035;-92
2021/08/15 04:22:34;;;;;;;5.38;2.88;;;17.00;82.70;;;;;;2042547;29;20047;-93
2021/08/15 04:23:34;;;;;;;6.25;3.50;;;17.00;82.80;;;;;;2034401;29;20032;-92
2021/08/15 04:24:35;;;;;;;4.82;3.10;;;17.00;82.80;;;;;;2061372;28;20034;-93
2021/08/15 04:25:36;;;;;;;6.03;3.33;;;17.00;82.80;;;;;;2056937;28;20031;-93
2021/08/15 04:26:37;;;;;;;5.97;3.67;;;17.00;82.90;;;;;;2035443;29;20039;-93
2021/08/15 04:27:38;;;;;;;6.68;3.40;;;17.00;82.90;;;;;;2042508;29;20051;-92
2021/08/15 04:28:39;;;;;;;6.18;3.20;;;17.00;82.90;;;;;;2049912;28;20031;-93
2021/08/15 04:29:40;;;;;;;6.40;2.92;;;17.00;82.90;;;;;;2058239;28;20072;-92
2021/08/15 04:30:40;;;;;;;5.72;3.08;;;17.00;82.90;;;;;;2059323;28;20031;-93
2021/08/15 04:31:41;;;;;;;5.40;3.30;;;17.10;83.00;;;;;;2050289;28;20089;-93
2021/08/15 04:32:42;;;;;;;5.85;2.95;;;17.00;82.90;;;;;;2038552;28;20096;-93
2021/08/15 04:33:43;;;;;;;5.40;3.28;;;17.00;82.90;;;;;;2049902;28;20054;-93
2021/08/15 04:34:43;;;;;;;6.25;3.58;;;17.00;82.90;;;;;;2049793;29;20035;-93
2021/08/15 04:35:44;;;;;;;5.43;3.42;;;17.00;82.90;;;;;;2042731;29;20488;-92
2021/08/15 04:36:45;;;;;;;6.28;3.35;;;17.00;83.00;;;;;;2051143;28;20046;-93
2021/08/15 04:37:46;;;;;;;5.85;3.20;;;17.10;83.00;;;;;;2039404;29;20071;-93
2021/08/15 04:38:47;;;;;;;4.10;2.75;;;17.10;83.10;;;;;;2042434;28;20031;-92
2021/08/15 04:39:47;;;;;;;6.78;3.28;;;17.00;83.00;;;;;;2056601;28;20043;-93
2021/08/15 04:40:50;;;;;;;5.38;3.25;;;17.10;83.10;;;;;;2042548;28;20050;-92
2021/08/15 04:41:51;;;;;;;5.75;3.20;;;17.00;83.10;;;;;;2050679;28;20156;-92
2021/08/15 04:42:52;;;;;;;5.88;3.30;;;17.00;83.00;;;;;;2065841;28;20049;-93
2021/08/15 04:43:52;;;;;;;6.68;3.47;;;17.00;83.00;;;;;;2042161;29;20044;-91
2021/08/15 04:44:53;;;;;;;6.60;3.70;;;17.10;83.10;;;;;;2057905;28;20035;-92
2021/08/15 04:45:54;;;;;;;7.70;3.47;;;17.10;83.70;;;;;;2063254;28;20079;-92
2021/08/15 04:46:54;;;;;;;6.22;3.63;;;17.10;83.10;;;;;;2058084;28;20125;-92
2021/08/15 04:47:55;;;;;;;6.18;3.42;;;17.10;83.10;;;;;;2049402;29;20071;-92
2021/08/15 04:48:56;;;;;;;5.97;3.47;;;17.10;83.00;;;;;;2050264;28;20512;-92
2021/08/15 04:49:56;;;;;;;6.95;3.30;;;17.10;83.00;;;;;;2042570;29;20039;-92
2021/08/15 04:50:57;;;;;;;6.68;3.45;;;17.10;83.00;;;;;;2050214;28;20036;-92
2021/08/15 04:51:58;;;;;;;6.93;3.80;;;17.10;83.00;;;;;;2058173;28;20043;-92
2021/08/15 04:52:58;;;;;;;5.18;3.10;;;17.10;83.00;;;;;;2042257;29;20135;-92
2021/08/15 04:54:00;;;;;;;6.32;3.70;;;17.20;83.00;;;;;;2046956;29;20102;-92
2021/08/15 04:55:01;;;;;;;5.60;3.47;;;17.20;83.10;;;;;;2058091;28;20042;-92
2021/08/15 04:56:03;;;;;;;6.70;3.65;;;17.20;83.10;;;;;;2058540;28;20449;-92
2021/08/15 04:57:04;;;;;;;5.57;3.53;;;17.20;83.10;;;;;;2055870;29;20039;-92
2021/08/15 04:58:05;;;;;;;7.60;3.67;;;17.20;83.10;;;;;;2049202;29;20036;-92
2021/08/15 04:59:06;;;;;;;6.38;3.90;;;17.30;83.10;;;;;;2049400;28;20047;-92
2021/08/15 05:00:07;;;;;;;6.18;3.63;;;17.20;83.00;;;;;;2048779;29;20536;-93
2021/08/15 05:01:07;;;;;;;5.55;3.35;;;17.20;83.10;;;;;;2057284;28;20051;-92
2021/08/15 05:02:08;;;;;;;7.78;4.13;;;17.20;83.10;;;;;;2049483;29;20048;-92
2021/08/15 05:03:11;;;;;;;7.07;4.05;;;17.20;83.20;;;;;;2048071;29;20079;-92
2021/08/15 05:04:11;;;;;;;6.38;3.95;;;17.30;83.30;;;;;;2049379;28;20055;-92
2021/08/15 05:05:12;;;;;;;5.88;3.60;;;17.30;83.30;;;;;;2067210;28;20062;-92
2021/08/15 05:06:13;;;;;;;6.05;4.25;;;17.30;83.30;;;;;;2064980;28;20046;-92
2021/08/15 05:07:13;;;;;;;6.65;3.92;;;17.30;83.30;;;;;;2056818;29;20042;-92
2021/08/15 05:08:14;;;;;;;5.82;3.85;;;17.30;83.30;;;;;;2057813;28;20055;-92
2021/08/15 05:09:15;;;;;;;6.63;4.25;;;17.30;83.30;;;;;;2057234;29;20043;-92
2021/08/15 05:10:15;;;;;;;7.00;4.20;;;17.30;83.30;;;;;;2056918;29;20035;-92
2021/08/15 05:11:17;;;;;;;7.82;4.05;;;17.30;83.20;;;;;;2048799;29;20032;-91
2021/08/15 05:12:17;;;;;;;7.07;4.32;;;17.30;83.20;;;;;;2028314;29;20430;-91
2021/08/15 05:13:19;;;;;;;6.35;4.00;;;17.30;83.10;;;;;;2028295;29;20143;-91
2021/08/15 05:14:20;;;;;;;6.90;4.15;;;17.40;83.20;;;;;;2050373;28;20063;-91
2021/08/15 05:15:20;;;;;;;7.88;4.50;;;17.40;83.10;;;;;;2051976;28;20078;-92
2021/08/15 05:16:21;;;;;;;7.63;4.65;;;17.40;83.10;;;;;;2049702;28;20067;-91
2021/08/15 05:17:22;;;;;;;7.28;4.35;;;17.40;83.00;;;;;;2049193;29;20059;-92
2021/08/15 05:18:22;;;;;;;8.20;4.63;;;17.40;83.00;;;;;;2050144;29;20039;-91